Terminal Aerodrome Forecast
Issued by NWS Billings, MT

Home | Current Version | Previous Version | Text Only | Print | Product List | Glossary On
Versions: 1 2 3 4 5 6 7 8 9 10 11 12
000
FTUS45 KBYZ 192329
TAFBIL
TAF
KBIL 192329Z 2000/2024 24013KT P6SM FEW120 BKN250
     FM201400 25017G32KT P6SM SCT220=

USA.gov is the U.S. government's official web portal to all federal, state and local government web resources and services.